sensor_id;sensor_type;location;lat;lon;timestamp;P1;durP1;ratioP1;P2;durP2;ratioP2
64633;SDS011;51043;52.406;9.690;2023-01-31T00:01:25;32.13;;;5.17;;
64633;SDS011;51043;52.406;9.690;2023-01-31T00:03:58;38.87;;;7.00;;
64633;SDS011;51043;52.406;9.690;2023-01-31T00:06:33;18.63;;;3.87;;
64633;SDS011;51043;52.406;9.690;2023-01-31T00:09:03;12.03;;;3.70;;
64633;SDS011;51043;52.406;9.690;2023-01-31T00:11:31;19.53;;;4.50;;
64633;SDS011;51043;52.406;9.690;2023-01-31T00:13:59;21.70;;;4.97;;
64633;SDS011;51043;52.406;9.690;2023-01-31T00:16:27;26.97;;;6.30;;
64633;SDS011;51043;52.406;9.690;2023-01-31T00:18:54;17.47;;;4.10;;
64633;SDS011;51043;52.406;9.690;2023-01-31T00:21:22;28.77;;;5.47;;
64633;SDS011;51043;52.406;9.690;2023-01-31T00:23:51;24.23;;;4.90;;
64633;SDS011;51043;52.406;9.690;2023-01-31T00:26:23;15.90;;;3.60;;
64633;SDS011;51043;52.406;9.690;2023-01-31T00:28:52;13.33;;;3.90;;
64633;SDS011;51043;52.406;9.690;2023-01-31T00:31:20;22.30;;;4.23;;
64633;SDS011;51043;52.406;9.690;2023-01-31T00:33:49;18.87;;;4.63;;
64633;SDS011;51043;52.406;9.690;2023-01-31T00:36:18;26.20;;;4.50;;
64633;SDS011;51043;52.406;9.690;2023-01-31T00:38:54;9.63;;;2.93;;
64633;SDS011;51043;52.406;9.690;2023-01-31T00:44:17;11.47;;;3.10;;
64633;SDS011;51043;52.406;9.690;2023-01-31T00:46:44;14.40;;;3.20;;
64633;SDS011;51043;52.406;9.690;2023-01-31T00:49:11;10.63;;;2.80;;
64633;SDS011;51043;52.406;9.690;2023-01-31T00:51:38;13.80;;;3.67;;
64633;SDS011;51043;52.406;9.690;2023-01-31T00:54:04;14.43;;;3.20;;
64633;SDS011;51043;52.406;9.690;2023-01-31T00:56:31;13.37;;;3.23;;
64633;SDS011;51043;52.406;9.690;2023-01-31T00:58:58;11.20;;;2.90;;
64633;SDS011;51043;52.406;9.690;2023-01-31T01:01:26;18.57;;;4.00;;
64633;SDS011;51043;52.406;9.690;2023-01-31T01:03:54;11.67;;;2.73;;
64633;SDS011;51043;52.406;9.690;2023-01-31T01:06:22;20.80;;;4.33;;
64633;SDS011;51043;52.406;9.690;2023-01-31T01:08:50;21.83;;;4.20;;
64633;SDS011;51043;52.406;9.690;2023-01-31T01:11:19;17.83;;;3.57;;
64633;SDS011;51043;52.406;9.690;2023-01-31T01:13:48;25.33;;;5.33;;
64633;SDS011;51043;52.406;9.690;2023-01-31T01:16:17;20.83;;;4.43;;
64633;SDS011;51043;52.406;9.690;2023-01-31T01:18:46;8.00;;;2.20;;
64633;SDS011;51043;52.406;9.690;2023-01-31T01:21:18;18.00;;;4.23;;
64633;SDS011;51043;52.406;9.690;2023-01-31T01:23:48;20.80;;;4.57;;
64633;SDS011;51043;52.406;9.690;2023-01-31T01:26:15;32.97;;;5.43;;
64633;SDS011;51043;52.406;9.690;2023-01-31T01:28:44;29.87;;;5.37;;
64633;SDS011;51043;52.406;9.690;2023-01-31T01:31:12;22.50;;;4.57;;
64633;SDS011;51043;52.406;9.690;2023-01-31T01:33:42;24.77;;;5.27;;
64633;SDS011;51043;52.406;9.690;2023-01-31T01:36:09;6.37;;;1.87;;
64633;SDS011;51043;52.406;9.690;2023-01-31T01:38:47;25.27;;;5.40;;
64633;SDS011;51043;52.406;9.690;2023-01-31T01:41:15;28.00;;;5.50;;
64633;SDS011;51043;52.406;9.690;2023-01-31T01:46:19;24.07;;;5.17;;
64633;SDS011;51043;52.406;9.690;2023-01-31T01:51:46;9.83;;;2.90;;
64633;SDS011;51043;52.406;9.690;2023-01-31T01:54:16;33.00;;;6.00;;
64633;SDS011;51043;52.406;9.690;2023-01-31T01:56:48;22.53;;;5.03;;
64633;SDS011;51043;52.406;9.690;2023-01-31T01:59:20;26.93;;;5.70;;
64633;SDS011;51043;52.406;9.690;2023-01-31T02:01:54;21.90;;;4.17;;
64633;SDS011;51043;52.406;9.690;2023-01-31T02:04:24;27.60;;;5.03;;
64633;SDS011;51043;52.406;9.690;2023-01-31T02:06:54;23.27;;;4.27;;
64633;SDS011;51043;52.406;9.690;2023-01-31T02:09:28;21.70;;;4.20;;
64633;SDS011;51043;52.406;9.690;2023-01-31T02:11:58;21.23;;;4.27;;
64633;SDS011;51043;52.406;9.690;2023-01-31T02:14:25;24.17;;;4.70;;
64633;SDS011;51043;52.406;9.690;2023-01-31T02:16:52;16.73;;;3.27;;
64633;SDS011;51043;52.406;9.690;2023-01-31T02:19:33;16.20;;;4.03;;
64633;SDS011;51043;52.406;9.690;2023-01-31T02:22:30;11.50;;;2.70;;
64633;SDS011;51043;52.406;9.690;2023-01-31T02:25:32;16.77;;;3.90;;
64633;SDS011;51043;52.406;9.690;2023-01-31T02:34:52;17.83;;;3.73;;
64633;SDS011;51043;52.406;9.690;2023-01-31T02:40:19;27.50;;;5.03;;
64633;SDS011;51043;52.406;9.690;2023-01-31T02:46:05;26.37;;;4.73;;
64633;SDS011;51043;52.406;9.690;2023-01-31T02:51:31;21.10;;;3.33;;
64633;SDS011;51043;52.406;9.690;2023-01-31T02:54:17;21.87;;;4.73;;
64633;SDS011;51043;52.406;9.690;2023-01-31T02:57:10;19.17;;;3.63;;
64633;SDS011;51043;52.406;9.690;2023-01-31T02:59:38;27.10;;;5.73;;
64633;SDS011;51043;52.406;9.690;2023-01-31T03:02:05;36.17;;;6.67;;
64633;SDS011;51043;52.406;9.690;2023-01-31T03:04:33;20.50;;;4.17;;
64633;SDS011;51043;52.406;9.690;2023-01-31T03:07:06;26.00;;;5.30;;
64633;SDS011;51043;52.406;9.690;2023-01-31T03:09:51;17.30;;;4.13;;
64633;SDS011;51043;52.406;9.690;2023-01-31T03:21:33;33.90;;;5.07;;
64633;SDS011;51043;52.406;9.690;2023-01-31T03:24:05;13.23;;;3.10;;
64633;SDS011;51043;52.406;9.690;2023-01-31T03:26:33;16.10;;;3.67;;
64633;SDS011;51043;52.406;9.690;2023-01-31T03:29:01;31.37;;;6.03;;
64633;SDS011;51043;52.406;9.690;2023-01-31T03:31:32;20.90;;;4.10;;
64633;SDS011;51043;52.406;9.690;2023-01-31T03:34:04;19.10;;;4.53;;
64633;SDS011;51043;52.406;9.690;2023-01-31T03:42:22;21.40;;;4.27;;
64633;SDS011;51043;52.406;9.690;2023-01-31T03:45:11;22.73;;;5.13;;
64633;SDS011;51043;52.406;9.690;2023-01-31T03:47:46;23.80;;;5.03;;
64633;SDS011;51043;52.406;9.690;2023-01-31T03:50:19;25.63;;;4.47;;
64633;SDS011;51043;52.406;9.690;2023-01-31T03:52:57;13.97;;;3.50;;
64633;SDS011;51043;52.406;9.690;2023-01-31T03:55:34;29.30;;;5.13;;
64633;SDS011;51043;52.406;9.690;2023-01-31T03:58:09;23.87;;;4.63;;
64633;SDS011;51043;52.406;9.690;2023-01-31T04:00:40;22.37;;;4.33;;
64633;SDS011;51043;52.406;9.690;2023-01-31T04:03:11;12.97;;;3.17;;
64633;SDS011;51043;52.406;9.690;2023-01-31T04:05:43;27.60;;;4.27;;
64633;SDS011;51043;52.406;9.690;2023-01-31T04:08:11;30.97;;;5.10;;
64633;SDS011;51043;52.406;9.690;2023-01-31T04:10:41;11.50;;;2.80;;
64633;SDS011;51043;52.406;9.690;2023-01-31T04:13:08;25.93;;;4.30;;
64633;SDS011;51043;52.406;9.690;2023-01-31T04:15:35;19.73;;;4.20;;
64633;SDS011;51043;52.406;9.690;2023-01-31T04:18:02;17.27;;;3.63;;
64633;SDS011;51043;52.406;9.690;2023-01-31T04:20:31;21.37;;;4.83;;
64633;SDS011;51043;52.406;9.690;2023-01-31T04:22:58;22.27;;;4.83;;
64633;SDS011;51043;52.406;9.690;2023-01-31T04:25:25;23.93;;;4.37;;
64633;SDS011;51043;52.406;9.690;2023-01-31T04:27:52;26.73;;;4.37;;
64633;SDS011;51043;52.406;9.690;2023-01-31T04:30:18;17.30;;;3.80;;
64633;SDS011;51043;52.406;9.690;2023-01-31T04:32:45;20.33;;;3.87;;
64633;SDS011;51043;52.406;9.690;2023-01-31T04:35:12;18.07;;;3.57;;
64633;SDS011;51043;52.406;9.690;2023-01-31T04:37:39;17.37;;;3.97;;
64633;SDS011;51043;52.406;9.690;2023-01-31T04:40:06;30.57;;;5.13;;
64633;SDS011;51043;52.406;9.690;2023-01-31T04:42:33;20.70;;;3.40;;
64633;SDS011;51043;52.406;9.690;2023-01-31T04:45:00;22.87;;;4.53;;
64633;SDS011;51043;52.406;9.690;2023-01-31T04:47:27;17.40;;;3.27;;
64633;SDS011;51043;52.406;9.690;2023-01-31T04:49:54;15.50;;;3.77;;
64633;SDS011;51043;52.406;9.690;2023-01-31T04:52:21;22.47;;;4.33;;
64633;SDS011;51043;52.406;9.690;2023-01-31T04:54:49;21.50;;;4.00;;
64633;SDS011;51043;52.406;9.690;2023-01-31T04:57:16;19.03;;;3.50;;
64633;SDS011;51043;52.406;9.690;2023-01-31T04:59:43;23.33;;;4.70;;
64633;SDS011;51043;52.406;9.690;2023-01-31T05:02:10;23.67;;;4.07;;
64633;SDS011;51043;52.406;9.690;2023-01-31T05:04:40;28.90;;;5.10;;
64633;SDS011;51043;52.406;9.690;2023-01-31T05:07:06;30.33;;;6.70;;
64633;SDS011;51043;52.406;9.690;2023-01-31T05:09:33;26.00;;;4.87;;
64633;SDS011;51043;52.406;9.690;2023-01-31T05:12:00;17.10;;;4.13;;
64633;SDS011;51043;52.406;9.690;2023-01-31T05:14:27;22.53;;;5.23;;
64633;SDS011;51043;52.406;9.690;2023-01-31T05:16:53;22.00;;;4.80;;
64633;SDS011;51043;52.406;9.690;2023-01-31T05:19:20;12.87;;;2.93;;
64633;SDS011;51043;52.406;9.690;2023-01-31T05:21:47;27.43;;;4.00;;
64633;SDS011;51043;52.406;9.690;2023-01-31T05:24:20;14.30;;;3.40;;
64633;SDS011;51043;52.406;9.690;2023-01-31T05:26:48;20.87;;;5.17;;
64633;SDS011;51043;52.406;9.690;2023-01-31T05:29:16;15.37;;;3.77;;
64633;SDS011;51043;52.406;9.690;2023-01-31T05:31:44;23.67;;;4.63;;
64633;SDS011;51043;52.406;9.690;2023-01-31T05:34:11;19.80;;;4.20;;
64633;SDS011;51043;52.406;9.690;2023-01-31T05:36:43;8.13;;;1.90;;
64633;SDS011;51043;52.406;9.690;2023-01-31T05:39:10;20.33;;;3.87;;
64633;SDS011;51043;52.406;9.690;2023-01-31T05:41:37;10.67;;;2.67;;
64633;SDS011;51043;52.406;9.690;2023-01-31T05:44:04;28.53;;;4.70;;
64633;SDS011;51043;52.406;9.690;2023-01-31T05:46:30;11.73;;;2.80;;
64633;SDS011;51043;52.406;9.690;2023-01-31T05:48:57;8.93;;;3.37;;
64633;SDS011;51043;52.406;9.690;2023-01-31T05:51:24;15.97;;;4.30;;
64633;SDS011;51043;52.406;9.690;2023-01-31T05:53:51;21.23;;;4.57;;
64633;SDS011;51043;52.406;9.690;2023-01-31T05:56:18;30.10;;;5.10;;
64633;SDS011;51043;52.406;9.690;2023-01-31T05:58:45;17.00;;;3.93;;
64633;SDS011;51043;52.406;9.690;2023-01-31T06:01:16;19.90;;;3.93;;
64633;SDS011;51043;52.406;9.690;2023-01-31T06:03:45;15.80;;;3.77;;
64633;SDS011;51043;52.406;9.690;2023-01-31T06:06:13;28.77;;;5.00;;
64633;SDS011;51043;52.406;9.690;2023-01-31T06:08:39;22.87;;;5.07;;
64633;SDS011;51043;52.406;9.690;2023-01-31T06:11:10;19.37;;;4.63;;
64633;SDS011;51043;52.406;9.690;2023-01-31T06:13:37;17.87;;;4.07;;
64633;SDS011;51043;52.406;9.690;2023-01-31T06:16:05;29.60;;;4.40;;
64633;SDS011;51043;52.406;9.690;2023-01-31T06:18:32;17.73;;;3.43;;
64633;SDS011;51043;52.406;9.690;2023-01-31T06:20:59;28.80;;;5.33;;
64633;SDS011;51043;52.406;9.690;2023-01-31T06:23:25;21.50;;;4.37;;
64633;SDS011;51043;52.406;9.690;2023-01-31T06:25:53;19.13;;;3.90;;
64633;SDS011;51043;52.406;9.690;2023-01-31T06:28:21;20.90;;;4.30;;
64633;SDS011;51043;52.406;9.690;2023-01-31T06:30:48;17.20;;;3.50;;
64633;SDS011;51043;52.406;9.690;2023-01-31T06:33:15;20.37;;;4.87;;
64633;SDS011;51043;52.406;9.690;2023-01-31T06:35:43;20.90;;;4.93;;
64633;SDS011;51043;52.406;9.690;2023-01-31T06:38:10;19.03;;;4.47;;
64633;SDS011;51043;52.406;9.690;2023-01-31T06:40:40;18.97;;;4.00;;
64633;SDS011;51043;52.406;9.690;2023-01-31T06:43:07;17.63;;;4.27;;
64633;SDS011;51043;52.406;9.690;2023-01-31T06:45:34;13.03;;;2.97;;
64633;SDS011;51043;52.406;9.690;2023-01-31T06:48:02;13.93;;;4.23;;
64633;SDS011;51043;52.406;9.690;2023-01-31T06:50:30;16.63;;;3.87;;
64633;SDS011;51043;52.406;9.690;2023-01-31T06:52:57;18.33;;;4.73;;
64633;SDS011;51043;52.406;9.690;2023-01-31T06:55:24;16.77;;;4.03;;
64633;SDS011;51043;52.406;9.690;2023-01-31T06:57:51;17.17;;;3.97;;
64633;SDS011;51043;52.406;9.690;2023-01-31T07:00:18;10.77;;;3.63;;
64633;SDS011;51043;52.406;9.690;2023-01-31T07:02:46;21.53;;;4.67;;
64633;SDS011;51043;52.406;9.690;2023-01-31T07:05:13;24.50;;;6.60;;
64633;SDS011;51043;52.406;9.690;2023-01-31T07:07:40;21.67;;;4.53;;
64633;SDS011;51043;52.406;9.690;2023-01-31T07:10:08;16.93;;;4.60;;
64633;SDS011;51043;52.406;9.690;2023-01-31T07:12:35;23.07;;;5.87;;
64633;SDS011;51043;52.406;9.690;2023-01-31T07:15:02;28.93;;;5.80;;
64633;SDS011;51043;52.406;9.690;2023-01-31T07:17:29;17.53;;;4.97;;
64633;SDS011;51043;52.406;9.690;2023-01-31T07:19:56;12.53;;;3.70;;
64633;SDS011;51043;52.406;9.690;2023-01-31T07:22:23;14.50;;;5.00;;
64633;SDS011;51043;52.406;9.690;2023-01-31T07:24:50;13.77;;;4.10;;
64633;SDS011;51043;52.406;9.690;2023-01-31T07:27:17;28.43;;;7.00;;
64633;SDS011;51043;52.406;9.690;2023-01-31T07:29:44;24.47;;;6.20;;
64633;SDS011;51043;52.406;9.690;2023-01-31T07:32:11;24.87;;;5.67;;
64633;SDS011;51043;52.406;9.690;2023-01-31T07:34:38;26.83;;;6.40;;
64633;SDS011;51043;52.406;9.690;2023-01-31T07:37:04;25.77;;;6.33;;
64633;SDS011;51043;52.406;9.690;2023-01-31T07:39:31;22.70;;;6.17;;
64633;SDS011;51043;52.406;9.690;2023-01-31T07:41:58;17.27;;;4.73;;
64633;SDS011;51043;52.406;9.690;2023-01-31T07:44:25;25.37;;;6.10;;
64633;SDS011;51043;52.406;9.690;2023-01-31T07:46:52;29.03;;;6.27;;
64633;SDS011;51043;52.406;9.690;2023-01-31T07:49:19;21.93;;;4.53;;
64633;SDS011;51043;52.406;9.690;2023-01-31T07:51:46;23.43;;;5.70;;
64633;SDS011;51043;52.406;9.690;2023-01-31T07:54:13;17.97;;;6.00;;
64633;SDS011;51043;52.406;9.690;2023-01-31T07:56:40;19.07;;;5.60;;
64633;SDS011;51043;52.406;9.690;2023-01-31T07:59:07;19.73;;;5.77;;
64633;SDS011;51043;52.406;9.690;2023-01-31T08:01:33;22.80;;;6.30;;
64633;SDS011;51043;52.406;9.690;2023-01-31T08:04:19;29.23;;;7.57;;
64633;SDS011;51043;52.406;9.690;2023-01-31T08:06:48;15.80;;;4.67;;
64633;SDS011;51043;52.406;9.690;2023-01-31T08:09:18;18.60;;;5.23;;
64633;SDS011;51043;52.406;9.690;2023-01-31T08:11:45;19.97;;;6.00;;
64633;SDS011;51043;52.406;9.690;2023-01-31T08:14:12;21.53;;;5.50;;
64633;SDS011;51043;52.406;9.690;2023-01-31T08:16:39;23.83;;;5.90;;
64633;SDS011;51043;52.406;9.690;2023-01-31T08:19:06;14.77;;;4.70;;
64633;SDS011;51043;52.406;9.690;2023-01-31T08:21:32;15.63;;;4.83;;
64633;SDS011;51043;52.406;9.690;2023-01-31T08:23:59;13.10;;;4.07;;
64633;SDS011;51043;52.406;9.690;2023-01-31T08:26:26;12.80;;;4.83;;
64633;SDS011;51043;52.406;9.690;2023-01-31T08:28:53;18.10;;;5.03;;
64633;SDS011;51043;52.406;9.690;2023-01-31T08:31:21;10.93;;;4.07;;
64633;SDS011;51043;52.406;9.690;2023-01-31T08:33:49;20.33;;;5.47;;
64633;SDS011;51043;52.406;9.690;2023-01-31T08:36:19;25.47;;;6.97;;
64633;SDS011;51043;52.406;9.690;2023-01-31T08:38:48;24.80;;;6.03;;
64633;SDS011;51043;52.406;9.690;2023-01-31T08:41:16;14.83;;;4.50;;
64633;SDS011;51043;52.406;9.690;2023-01-31T08:43:44;19.67;;;5.87;;
64633;SDS011;51043;52.406;9.690;2023-01-31T08:46:22;24.40;;;6.63;;
64633;SDS011;51043;52.406;9.690;2023-01-31T08:48:50;19.97;;;5.30;;
64633;SDS011;51043;52.406;9.690;2023-01-31T08:51:17;15.10;;;5.10;;
64633;SDS011;51043;52.406;9.690;2023-01-31T08:53:46;22.20;;;5.27;;
64633;SDS011;51043;52.406;9.690;2023-01-31T08:56:14;20.60;;;5.70;;
64633;SDS011;51043;52.406;9.690;2023-01-31T08:58:41;15.40;;;4.83;;
64633;SDS011;51043;52.406;9.690;2023-01-31T09:01:13;23.73;;;6.83;;
64633;SDS011;51043;52.406;9.690;2023-01-31T09:03:41;20.80;;;6.30;;
64633;SDS011;51043;52.406;9.690;2023-01-31T09:06:14;11.67;;;4.53;;
64633;SDS011;51043;52.406;9.690;2023-01-31T09:08:43;24.20;;;6.33;;
64633;SDS011;51043;52.406;9.690;2023-01-31T09:11:10;24.60;;;6.23;;
64633;SDS011;51043;52.406;9.690;2023-01-31T09:13:42;15.87;;;4.33;;
64633;SDS011;51043;52.406;9.690;2023-01-31T09:16:09;21.10;;;6.07;;
64633;SDS011;51043;52.406;9.690;2023-01-31T09:18:39;17.17;;;5.83;;
64633;SDS011;51043;52.406;9.690;2023-01-31T09:21:08;15.67;;;5.90;;
64633;SDS011;51043;52.406;9.690;2023-01-31T09:23:46;20.43;;;6.80;;
64633;SDS011;51043;52.406;9.690;2023-01-31T09:26:14;16.27;;;5.87;;
64633;SDS011;51043;52.406;9.690;2023-01-31T09:28:41;25.90;;;7.07;;
64633;SDS011;51043;52.406;9.690;2023-01-31T09:31:10;23.43;;;7.73;;
64633;SDS011;51043;52.406;9.690;2023-01-31T09:33:39;26.20;;;6.37;;
64633;SDS011;51043;52.406;9.690;2023-01-31T09:36:08;9.63;;;4.47;;
64633;SDS011;51043;52.406;9.690;2023-01-31T09:38:36;23.40;;;8.17;;
64633;SDS011;51043;52.406;9.690;2023-01-31T09:41:05;31.43;;;8.77;;
64633;SDS011;51043;52.406;9.690;2023-01-31T09:43:42;25.27;;;8.37;;
64633;SDS011;51043;52.406;9.690;2023-01-31T09:46:14;14.33;;;6.20;;
64633;SDS011;51043;52.406;9.690;2023-01-31T09:48:45;21.40;;;7.67;;
64633;SDS011;51043;52.406;9.690;2023-01-31T09:51:15;25.47;;;9.57;;
64633;SDS011;51043;52.406;9.690;2023-01-31T09:53:43;25.00;;;8.93;;
64633;SDS011;51043;52.406;9.690;2023-01-31T10:01:39;20.73;;;7.53;;
64633;SDS011;51043;52.406;9.690;2023-01-31T10:07:19;20.50;;;8.00;;
64633;SDS011;51043;52.406;9.690;2023-01-31T10:09:56;21.43;;;7.63;;
64633;SDS011;51043;52.406;9.690;2023-01-31T10:12:36;15.87;;;6.33;;
64633;SDS011;51043;52.406;9.690;2023-01-31T10:15:12;16.93;;;6.10;;
64633;SDS011;51043;52.406;9.690;2023-01-31T10:17:51;16.57;;;6.47;;
64633;SDS011;51043;52.406;9.690;2023-01-31T10:23:17;14.90;;;5.80;;
64633;SDS011;51043;52.406;9.690;2023-01-31T10:25:59;11.20;;;5.03;;
64633;SDS011;51043;52.406;9.690;2023-01-31T10:36:59;16.10;;;6.17;;
64633;SDS011;51043;52.406;9.690;2023-01-31T10:42:25;19.23;;;7.47;;
64633;SDS011;51043;52.406;9.690;2023-01-31T10:44:57;20.67;;;6.33;;
64633;SDS011;51043;52.406;9.690;2023-01-31T10:47:32;14.87;;;4.37;;
64633;SDS011;51043;52.406;9.690;2023-01-31T10:50:01;13.00;;;5.93;;
64633;SDS011;51043;52.406;9.690;2023-01-31T10:52:44;15.77;;;5.87;;
64633;SDS011;51043;52.406;9.690;2023-01-31T10:55:47;9.47;;;4.70;;
64633;SDS011;51043;52.406;9.690;2023-01-31T10:58:29;10.20;;;4.73;;
64633;SDS011;51043;52.406;9.690;2023-01-31T11:00:56;20.07;;;5.33;;
64633;SDS011;51043;52.406;9.690;2023-01-31T11:03:24;17.40;;;6.27;;
64633;SDS011;51043;52.406;9.690;2023-01-31T11:05:53;23.70;;;6.50;;
64633;SDS011;51043;52.406;9.690;2023-01-31T11:11:07;14.43;;;5.83;;
64633;SDS011;51043;52.406;9.690;2023-01-31T11:13:35;13.07;;;5.50;;
64633;SDS011;51043;52.406;9.690;2023-01-31T11:16:03;15.37;;;5.97;;
64633;SDS011;51043;52.406;9.690;2023-01-31T11:18:34;18.00;;;6.33;;
64633;SDS011;51043;52.406;9.690;2023-01-31T11:21:03;17.27;;;6.50;;
64633;SDS011;51043;52.406;9.690;2023-01-31T11:23:31;11.53;;;4.10;;
64633;SDS011;51043;52.406;9.690;2023-01-31T11:26:00;8.50;;;4.30;;
64633;SDS011;51043;52.406;9.690;2023-01-31T11:28:32;14.90;;;6.10;;
64633;SDS011;51043;52.406;9.690;2023-01-31T11:31:02;19.70;;;6.90;;
64633;SDS011;51043;52.406;9.690;2023-01-31T11:36:22;17.90;;;6.03;;
64633;SDS011;51043;52.406;9.690;2023-01-31T11:38:49;13.93;;;5.70;;
64633;SDS011;51043;52.406;9.690;2023-01-31T11:41:27;13.47;;;5.73;;
64633;SDS011;51043;52.406;9.690;2023-01-31T11:44:07;14.73;;;5.57;;
64633;SDS011;51043;52.406;9.690;2023-01-31T11:46:52;15.00;;;6.73;;
64633;SDS011;51043;52.406;9.690;2023-01-31T11:49:29;16.30;;;6.30;;
64633;SDS011;51043;52.406;9.690;2023-01-31T11:52:13;12.80;;;6.03;;
64633;SDS011;51043;52.406;9.690;2023-01-31T11:54:45;26.87;;;8.87;;
64633;SDS011;51043;52.406;9.690;2023-01-31T11:57:28;20.17;;;6.83;;
64633;SDS011;51043;52.406;9.690;2023-01-31T11:59:58;23.83;;;7.97;;
64633;SDS011;51043;52.406;9.690;2023-01-31T12:02:35;10.20;;;5.57;;
64633;SDS011;51043;52.406;9.690;2023-01-31T12:05:11;15.57;;;6.73;;
64633;SDS011;51043;52.406;9.690;2023-01-31T12:07:47;11.17;;;5.33;;
64633;SDS011;51043;52.406;9.690;2023-01-31T12:11:01;14.30;;;5.97;;
64633;SDS011;51043;52.406;9.690;2023-01-31T12:13:13;17.07;;;6.33;;
64633;SDS011;51043;52.406;9.690;2023-01-31T12:15:45;15.60;;;7.30;;
64633;SDS011;51043;52.406;9.690;2023-01-31T12:26:54;29.90;;;10.13;;
64633;SDS011;51043;52.406;9.690;2023-01-31T12:37:35;17.37;;;6.63;;
64633;SDS011;51043;52.406;9.690;2023-01-31T12:40:09;16.30;;;7.50;;
64633;SDS011;51043;52.406;9.690;2023-01-31T12:43:00;18.83;;;7.13;;
64633;SDS011;51043;52.406;9.690;2023-01-31T12:45:32;18.30;;;7.80;;
64633;SDS011;51043;52.406;9.690;2023-01-31T12:53:13;15.77;;;6.30;;
64633;SDS011;51043;52.406;9.690;2023-01-31T13:01:36;19.00;;;9.90;;
64633;SDS011;51043;52.406;9.690;2023-01-31T13:04:16;13.77;;;7.17;;
64633;SDS011;51043;52.406;9.690;2023-01-31T13:06:58;19.03;;;7.70;;
64633;SDS011;51043;52.406;9.690;2023-01-31T13:09:32;18.70;;;8.77;;
64633;SDS011;51043;52.406;9.690;2023-01-31T13:12:03;27.30;;;12.00;;
64633;SDS011;51043;52.406;9.690;2023-01-31T13:14:39;20.90;;;10.57;;
64633;SDS011;51043;52.406;9.690;2023-01-31T13:17:11;26.77;;;11.80;;
64633;SDS011;51043;52.406;9.690;2023-01-31T13:22:17;22.23;;;12.37;;
64633;SDS011;51043;52.406;9.690;2023-01-31T13:24:49;17.60;;;9.93;;
64633;SDS011;51043;52.406;9.690;2023-01-31T13:27:30;18.43;;;8.97;;
64633;SDS011;51043;52.406;9.690;2023-01-31T13:30:14;18.13;;;11.43;;
64633;SDS011;51043;52.406;9.690;2023-01-31T13:32:46;22.50;;;11.03;;
64633;SDS011;51043;52.406;9.690;2023-01-31T13:35:22;26.17;;;15.40;;
64633;SDS011;51043;52.406;9.690;2023-01-31T13:37:54;18.37;;;10.60;;
64633;SDS011;51043;52.406;9.690;2023-01-31T13:40:27;17.50;;;10.53;;
64633;SDS011;51043;52.406;9.690;2023-01-31T13:42:58;24.50;;;14.50;;
64633;SDS011;51043;52.406;9.690;2023-01-31T13:45:29;16.40;;;10.50;;
64633;SDS011;51043;52.406;9.690;2023-01-31T13:48:02;27.43;;;14.83;;
64633;SDS011;51043;52.406;9.690;2023-01-31T13:50:34;11.57;;;7.93;;
64633;SDS011;51043;52.406;9.690;2023-01-31T13:53:15;29.67;;;16.13;;
64633;SDS011;51043;52.406;9.690;2023-01-31T13:55:47;27.30;;;14.67;;
64633;SDS011;51043;52.406;9.690;2023-01-31T13:58:17;20.47;;;13.20;;
64633;SDS011;51043;52.406;9.690;2023-01-31T14:01:01;15.83;;;9.03;;
64633;SDS011;51043;52.406;9.690;2023-01-31T14:09:25;19.00;;;11.80;;
64633;SDS011;51043;52.406;9.690;2023-01-31T14:14:44;9.70;;;7.37;;
64633;SDS011;51043;52.406;9.690;2023-01-31T14:20:06;12.77;;;7.97;;
64633;SDS011;51043;52.406;9.690;2023-01-31T14:25:55;14.30;;;9.17;;
64633;SDS011;51043;52.406;9.690;2023-01-31T14:28:22;18.27;;;10.73;;
64633;SDS011;51043;52.406;9.690;2023-01-31T14:30:50;8.17;;;4.97;;
64633;SDS011;51043;52.406;9.690;2023-01-31T14:33:18;10.30;;;6.77;;
64633;SDS011;51043;52.406;9.690;2023-01-31T14:35:59;10.90;;;7.47;;
64633;SDS011;51043;52.406;9.690;2023-01-31T14:38:48;8.67;;;5.30;;
64633;SDS011;51043;52.406;9.690;2023-01-31T14:41:41;12.63;;;6.70;;
64633;SDS011;51043;52.406;9.690;2023-01-31T14:52:52;8.63;;;5.00;;
64633;SDS011;51043;52.406;9.690;2023-01-31T14:58:14;12.50;;;5.80;;
64633;SDS011;51043;52.406;9.690;2023-01-31T15:00:51;10.10;;;6.20;;
64633;SDS011;51043;52.406;9.690;2023-01-31T15:03:25;12.70;;;5.20;;
64633;SDS011;51043;52.406;9.690;2023-01-31T15:06:14;8.97;;;4.87;;
64633;SDS011;51043;52.406;9.690;2023-01-31T15:09:17;9.77;;;5.37;;
64633;SDS011;51043;52.406;9.690;2023-01-31T15:12:01;9.83;;;4.50;;
64633;SDS011;51043;52.406;9.690;2023-01-31T15:14:34;7.63;;;4.90;;
64633;SDS011;51043;52.406;9.690;2023-01-31T15:17:08;12.20;;;7.57;;
64633;SDS011;51043;52.406;9.690;2023-01-31T15:20:21;12.13;;;6.53;;
64633;SDS011;51043;52.406;9.690;2023-01-31T15:22:55;10.50;;;6.17;;
64633;SDS011;51043;52.406;9.690;2023-01-31T15:25:34;8.87;;;5.27;;
64633;SDS011;51043;52.406;9.690;2023-01-31T15:28:08;9.57;;;5.13;;
64633;SDS011;51043;52.406;9.690;2023-01-31T15:30:40;6.63;;;5.13;;
64633;SDS011;51043;52.406;9.690;2023-01-31T15:33:16;11.13;;;6.10;;
64633;SDS011;51043;52.406;9.690;2023-01-31T15:35:54;9.50;;;5.73;;
64633;SDS011;51043;52.406;9.690;2023-01-31T15:38:37;12.80;;;7.00;;
64633;SDS011;51043;52.406;9.690;2023-01-31T15:41:34;11.30;;;6.90;;
64633;SDS011;51043;52.406;9.690;2023-01-31T15:44:15;9.90;;;6.53;;
64633;SDS011;51043;52.406;9.690;2023-01-31T15:46:44;6.77;;;4.63;;
64633;SDS011;51043;52.406;9.690;2023-01-31T15:49:20;17.87;;;8.00;;
64633;SDS011;51043;52.406;9.690;2023-01-31T15:54:33;9.17;;;6.13;;
64633;SDS011;51043;52.406;9.690;2023-01-31T15:57:01;4.53;;;3.87;;
64633;SDS011;51043;52.406;9.690;2023-01-31T15:59:29;12.43;;;7.00;;
64633;SDS011;51043;52.406;9.690;2023-01-31T16:01:59;17.50;;;7.83;;
64633;SDS011;51043;52.406;9.690;2023-01-31T16:04:27;12.30;;;7.27;;
64633;SDS011;51043;52.406;9.690;2023-01-31T16:06:55;15.03;;;9.10;;
64633;SDS011;51043;52.406;9.690;2023-01-31T16:11:54;16.47;;;10.40;;
64633;SDS011;51043;52.406;9.690;2023-01-31T16:14:23;10.90;;;7.93;;
64633;SDS011;51043;52.406;9.690;2023-01-31T16:16:51;11.67;;;6.50;;
64633;SDS011;51043;52.406;9.690;2023-01-31T16:19:24;19.93;;;9.40;;
64633;SDS011;51043;52.406;9.690;2023-01-31T16:21:54;18.27;;;9.13;;
64633;SDS011;51043;52.406;9.690;2023-01-31T16:24:22;24.37;;;11.67;;
64633;SDS011;51043;52.406;9.690;2023-01-31T16:32:21;14.57;;;8.57;;
64633;SDS011;51043;52.406;9.690;2023-01-31T16:35:03;15.43;;;7.10;;
64633;SDS011;51043;52.406;9.690;2023-01-31T16:37:35;10.57;;;3.50;;
64633;SDS011;51043;52.406;9.690;2023-01-31T16:40:17;8.30;;;3.43;;
64633;SDS011;51043;52.406;9.690;2023-01-31T16:42:47;4.37;;;2.37;;
64633;SDS011;51043;52.406;9.690;2023-01-31T16:45:33;7.73;;;2.37;;
64633;SDS011;51043;52.406;9.690;2023-01-31T16:48:18;4.23;;;2.20;;
64633;SDS011;51043;52.406;9.690;2023-01-31T16:50:54;11.07;;;3.27;;
64633;SDS011;51043;52.406;9.690;2023-01-31T16:56:14;13.03;;;4.47;;
64633;SDS011;51043;52.406;9.690;2023-01-31T16:58:50;10.33;;;4.67;;
64633;SDS011;51043;52.406;9.690;2023-01-31T17:01:25;8.67;;;4.10;;
64633;SDS011;51043;52.406;9.690;2023-01-31T17:03:59;8.30;;;3.80;;
64633;SDS011;51043;52.406;9.690;2023-01-31T17:06:44;12.03;;;5.37;;
64633;SDS011;51043;52.406;9.690;2023-01-31T17:09:17;11.23;;;4.70;;
64633;SDS011;51043;52.406;9.690;2023-01-31T17:11:47;17.43;;;5.10;;
64633;SDS011;51043;52.406;9.690;2023-01-31T17:14:14;6.83;;;3.37;;
64633;SDS011;51043;52.406;9.690;2023-01-31T17:16:41;9.70;;;3.43;;
64633;SDS011;51043;52.406;9.690;2023-01-31T17:19:07;9.87;;;3.50;;